createdAt,value
2023-03-15T00:01:33.423Z,87.04
2023-03-15T00:04:01.105Z,86.99
2023-03-15T00:06:28.673Z,87.38
2023-03-15T00:08:56.485Z,87.25
2023-03-15T00:11:27.161Z,86.76
2023-03-15T00:13:57.856Z,86.83
2023-03-15T00:16:27.085Z,87.09
2023-03-15T00:18:55.453Z,87.41
2023-03-15T00:21:22.877Z,86.93
2023-03-15T00:23:50.410Z,87.02
2023-03-15T00:26:21.667Z,87.53
2023-03-15T00:28:49.652Z,87.34
2023-03-15T00:31:24.792Z,87.24
2023-03-15T00:33:55.571Z,86.94
2023-03-15T00:36:23.681Z,86.87
2023-03-15T00:38:54.045Z,86.79
2023-03-15T00:41:21.720Z,87.11
2023-03-15T00:43:50.314Z,87.29
2023-03-15T00:46:17.977Z,87.47
2023-03-15T00:48:48.335Z,87.55
2023-03-15T00:51:17.477Z,88.11
2023-03-15T00:53:45.228Z,88.45
2023-03-15T00:56:17.938Z,88.11
2023-03-15T00:58:45.278Z,88.38
2023-03-15T01:01:17.487Z,88.54
2023-03-15T01:03:47.892Z,88.52
2023-03-15T01:06:19.498Z,88.99
2023-03-15T01:08:46.880Z,88.86
2023-03-15T01:11:17.232Z,88.68
2023-03-15T01:13:44.942Z,88.67
2023-03-15T01:16:13.164Z,88.73
2023-03-15T01:18:42.067Z,88.97
2023-03-15T01:21:10.410Z,89.33
2023-03-15T01:23:38.119Z,88.65
2023-03-15T01:26:06.803Z,88.84
2023-03-15T01:28:34.641Z,87.97
2023-03-15T01:31:01.945Z,87.83
2023-03-15T01:33:29.723Z,87.98
2023-03-15T01:36:00.120Z,87.34
2023-03-15T01:38:27.838Z,87.53
2023-03-15T01:40:55.265Z,87.50
2023-03-15T01:43:23.560Z,87.46
2023-03-15T01:46:04.499Z,87.59
2023-03-15T01:48:38.880Z,88.09
2023-03-15T01:51:13.726Z,88.15
2023-03-15T01:53:41.627Z,87.23
2023-03-15T01:56:11.266Z,86.81
2023-03-15T01:58:39.445Z,87.25
2023-03-15T02:01:07.318Z,86.54
2023-03-15T02:03:37.316Z,86.89
2023-03-15T02:06:07.449Z,86.95
2023-03-15T02:08:41.907Z,86.33
2023-03-15T02:11:09.212Z,86.21
2023-03-15T02:13:38.086Z,85.87
2023-03-15T02:16:06.996Z,85.47
2023-03-15T02:18:37.052Z,85.26
2023-03-15T02:21:29.190Z,85.24
2023-03-15T02:24:21.378Z,85.25
2023-03-15T02:26:56.826Z,85.02
2023-03-15T02:29:24.873Z,84.72
2023-03-15T02:31:53.302Z,85.14
2023-03-15T02:34:25.377Z,84.94
2023-03-15T02:36:54.050Z,84.83
2023-03-15T02:39:21.670Z,84.61
2023-03-15T02:41:51.998Z,84.28
2023-03-15T02:44:20.204Z,84.49
2023-03-15T02:46:48.635Z,84.78
2023-03-15T02:49:17.081Z,84.80
2023-03-15T02:51:45.397Z,84.21
2023-03-15T02:54:12.656Z,84.48
2023-03-15T02:56:43.899Z,83.96
2023-03-15T02:59:12.916Z,84.26
2023-03-15T03:01:40.451Z,84.69
2023-03-15T03:04:08.352Z,84.80
2023-03-15T03:06:35.673Z,84.98
2023-03-15T03:09:04.299Z,84.58
2023-03-15T03:11:31.940Z,84.22
2023-03-15T03:13:59.248Z,84.36
2023-03-15T03:16:27.857Z,84.24
2023-03-15T03:18:55.759Z,84.92
2023-03-15T03:21:26.618Z,85.00
2023-03-15T03:23:54.785Z,84.66
2023-03-15T03:26:22.022Z,85.25
2023-03-15T03:28:50.146Z,84.89
2023-03-15T03:31:22.340Z,85.01
2023-03-15T03:33:56.095Z,84.99
2023-03-15T03:36:24.946Z,84.62
2023-03-15T03:38:52.571Z,85.24
2023-03-15T03:41:20.000Z,86.29
2023-03-15T03:43:47.759Z,86.79
2023-03-15T03:46:17.441Z,86.83
2023-03-15T03:48:44.709Z,86.84
2023-03-15T03:51:11.975Z,86.95
2023-03-15T03:53:39.338Z,86.66
2023-03-15T03:56:07.064Z,87.34
2023-03-15T03:58:34.809Z,87.68
2023-03-15T04:01:02.304Z,88.11
2023-03-15T04:03:29.911Z,87.49
2023-03-15T04:05:59.422Z,87.30
2023-03-15T04:08:26.903Z,88.51
2023-03-15T04:10:56.683Z,87.47
2023-03-15T04:13:24.919Z,87.58
2023-03-15T04:15:52.410Z,87.41
2023-03-15T04:18:25.585Z,87.01
2023-03-15T04:20:54.892Z,87.46
2023-03-15T04:23:22.671Z,87.17
2023-03-15T04:25:50.883Z,87.68
2023-03-15T04:28:18.846Z,87.96
2023-03-15T04:30:47.915Z,87.42
2023-03-15T04:33:15.610Z,88.23
2023-03-15T04:35:43.027Z,87.40
2023-03-15T04:38:11.097Z,87.54
2023-03-15T04:40:39.078Z,87.85
2023-03-15T04:43:06.473Z,87.54
2023-03-15T04:45:35.621Z,87.67
2023-03-15T04:48:03.235Z,87.09
2023-03-15T04:50:31.384Z,86.64
2023-03-15T04:52:59.667Z,86.06
2023-03-15T04:55:30.644Z,86.13
2023-03-15T04:57:58.681Z,86.13
2023-03-15T05:00:26.230Z,86.22
2023-03-15T05:02:55.215Z,86.00
2023-03-15T05:05:23.707Z,85.06
2023-03-15T05:07:52.374Z,85.84
2023-03-15T05:10:21.264Z,85.25
2023-03-15T05:12:49.092Z,84.28
2023-03-15T05:15:18.131Z,83.86
2023-03-15T05:17:46.440Z,83.55
2023-03-15T05:20:14.869Z,84.17
2023-03-15T05:22:44.915Z,83.40
2023-03-15T05:25:12.316Z,82.96
2023-03-15T05:27:40.129Z,82.54
2023-03-15T05:30:08.618Z,81.81
2023-03-15T05:32:39.508Z,82.32
2023-03-15T05:35:07.325Z,82.01
2023-03-15T05:37:35.812Z,82.01
2023-03-15T05:40:04.686Z,81.09
2023-03-15T05:42:32.187Z,80.95
2023-03-15T05:45:00.495Z,80.74
2023-03-15T05:47:28.286Z,80.00
2023-03-15T05:49:55.475Z,79.98
2023-03-15T05:52:22.895Z,79.97
2023-03-15T05:54:50.225Z,79.57
2023-03-15T05:57:23.949Z,79.50
2023-03-15T05:59:51.365Z,78.83
2023-03-15T06:02:19.098Z,78.11
2023-03-15T06:04:46.447Z,77.59
2023-03-15T06:07:14.112Z,77.80
2023-03-15T06:09:44.742Z,78.07
2023-03-15T06:12:12.114Z,77.38
2023-03-15T06:14:39.624Z,77.56
2023-03-15T06:17:08.872Z,76.96
2023-03-15T06:19:37.843Z,76.43
2023-03-15T06:22:05.979Z,76.70
2023-03-15T06:24:35.961Z,76.83
2023-03-15T06:27:03.320Z,76.05
2023-03-15T06:29:30.586Z,76.17
2023-03-15T06:31:57.819Z,74.97
2023-03-15T06:34:25.411Z,74.79
2023-03-15T06:36:53.105Z,74.62
2023-03-15T06:39:21.153Z,74.45
2023-03-15T06:41:48.387Z,73.77
2023-03-15T06:44:15.650Z,71.92
2023-03-15T06:46:42.955Z,72.18
2023-03-15T06:49:12.564Z,71.96
2023-03-15T06:51:42.626Z,71.76
2023-03-15T06:54:09.965Z,70.58
2023-03-15T06:56:39.138Z,69.81
2023-03-15T06:59:07.540Z,69.15
2023-03-15T07:01:36.788Z,69.14
2023-03-15T07:04:04.829Z,69.67
2023-03-15T07:06:33.542Z,68.62
2023-03-15T07:09:00.851Z,67.87
2023-03-15T07:11:28.893Z,66.72
2023-03-15T07:13:56.155Z,65.41
2023-03-15T07:16:23.857Z,65.89
2023-03-15T07:18:51.461Z,65.62
2023-03-15T07:21:19.345Z,65.46
2023-03-15T07:23:46.565Z,64.22
2023-03-15T07:26:14.068Z,62.99
2023-03-15T07:28:49.041Z,63.16
2023-03-15T07:31:17.753Z,63.36
2023-03-15T07:33:45.000Z,63.89
2023-03-15T07:36:12.492Z,63.21
2023-03-15T07:38:43.210Z,62.36
2023-03-15T07:41:15.604Z,62.94
2023-03-15T07:43:44.830Z,62.88
2023-03-15T07:46:12.174Z,62.26
2023-03-15T07:48:39.648Z,59.21
2023-03-15T07:51:06.953Z,56.04
2023-03-15T07:53:35.364Z,53.22
2023-03-15T07:56:02.760Z,49.04
2023-03-15T07:58:30.274Z,44.31
2023-03-15T08:00:59.196Z,40.86
2023-03-15T08:03:27.131Z,39.66
2023-03-15T08:05:54.482Z,40.30
2023-03-15T08:08:21.700Z,39.93
2023-03-15T08:10:49.072Z,41.64
2023-03-15T08:13:18.357Z,39.61
2023-03-15T08:15:46.793Z,39.40
2023-03-15T08:18:16.415Z,38.26
2023-03-15T08:20:44.022Z,37.35
2023-03-15T08:23:16.524Z,37.19
2023-03-15T08:25:44.162Z,37.56
2023-03-15T08:28:11.708Z,37.18
2023-03-15T08:30:39.188Z,36.03
2023-03-15T08:33:08.033Z,34.71
2023-03-15T08:35:36.942Z,33.77
2023-03-15T08:38:07.239Z,34.25
2023-03-15T08:40:35.102Z,33.84
2023-03-15T08:43:02.310Z,33.20
2023-03-15T08:45:37.424Z,32.67
2023-03-15T08:48:14.374Z,33.33
2023-03-15T08:50:42.792Z,33.16
2023-03-15T08:53:11.096Z,34.13
2023-03-15T08:55:38.941Z,33.60
2023-03-15T08:58:06.653Z,32.88
2023-03-15T09:00:34.047Z,32.93
2023-03-15T09:03:01.597Z,31.88
2023-03-15T09:05:29.966Z,31.49
2023-03-15T09:07:57.308Z,32.14
2023-03-15T09:10:24.663Z,31.76
2023-03-15T09:12:53.744Z,31.66
2023-03-15T09:15:22.008Z,32.60
2023-03-15T09:17:51.719Z,32.42
2023-03-15T09:20:21.927Z,32.47
2023-03-15T09:22:56.475Z,32.06
2023-03-15T09:25:24.410Z,31.45
2023-03-15T09:27:51.884Z,31.24
2023-03-15T09:30:20.108Z,31.13
2023-03-15T09:32:47.853Z,31.69
2023-03-15T09:35:16.860Z,31.20
2023-03-15T09:37:44.471Z,31.25
2023-03-15T09:40:21.044Z,31.81
2023-03-15T09:43:06.706Z,30.78
2023-03-15T09:46:07.365Z,30.32
2023-03-15T09:48:54.663Z,31.02
2023-03-15T09:51:32.146Z,31.26
2023-03-15T09:54:08.568Z,31.58
2023-03-15T09:56:38.370Z,31.39
2023-03-15T09:59:05.816Z,31.41
2023-03-15T10:01:38.790Z,31.89
2023-03-15T10:04:26.619Z,31.32
2023-03-15T10:06:56.322Z,31.53
2023-03-15T10:09:26.830Z,31.71
2023-03-15T10:12:04.904Z,30.74
2023-03-15T10:14:39.829Z,31.54
2023-03-15T10:17:34.221Z,31.14
2023-03-15T10:20:09.734Z,31.64
2023-03-15T10:22:38.054Z,30.43
2023-03-15T10:25:23.588Z,31.26
2023-03-15T10:27:54.157Z,31.47
2023-03-15T10:30:23.553Z,31.48
2023-03-15T10:33:13.315Z,30.97
2023-03-15T10:35:42.853Z,30.06
2023-03-15T10:38:21.767Z,29.92
2023-03-15T10:40:53.793Z,29.95
2023-03-15T10:43:32.461Z,30.11
2023-03-15T10:46:10.401Z,30.66
2023-03-15T10:48:39.343Z,31.66
2023-03-15T10:51:21.502Z,33.68
2023-03-15T10:53:54.066Z,33.42
2023-03-15T10:56:25.853Z,33.17
2023-03-15T10:59:09.517Z,32.13
2023-03-15T11:01:39.323Z,30.83
2023-03-15T11:04:06.524Z,31.31
2023-03-15T11:06:42.083Z,32.58
2023-03-15T11:09:17.993Z,33.13
2023-03-15T11:12:30.777Z,32.50
2023-03-15T11:15:04.185Z,32.18
2023-03-15T11:17:34.471Z,32.22
2023-03-15T11:20:13.387Z,32.60
2023-03-15T11:22:47.614Z,32.75
2023-03-15T11:25:15.612Z,31.38
2023-03-15T11:27:51.125Z,31.53
2023-03-15T11:30:19.023Z,31.41
2023-03-15T11:32:47.944Z,32.23
2023-03-15T11:35:41.224Z,32.45
2023-03-15T11:38:33.548Z,32.43
2023-03-15T11:41:01.733Z,32.08
2023-03-15T11:43:47.542Z,31.09
2023-03-15T11:46:21.266Z,32.12
2023-03-15T11:49:04.540Z,32.18
2023-03-15T11:51:33.698Z,33.63
2023-03-15T11:54:13.744Z,35.04
2023-03-15T11:57:01.679Z,34.96
2023-03-15T11:59:29.345Z,35.60
2023-03-15T12:02:05.981Z,35.96
2023-03-15T12:04:33.238Z,36.75
2023-03-15T12:07:20.428Z,36.92
2023-03-15T12:09:52.630Z,36.36
2023-03-15T12:12:24.677Z,37.15
2023-03-15T12:15:16.558Z,36.57
2023-03-15T12:17:58.953Z,36.57
2023-03-15T12:21:09.038Z,36.87
2023-03-15T12:23:43.298Z,36.16
2023-03-15T12:26:24.200Z,36.69
2023-03-15T12:28:52.789Z,37.57
2023-03-15T12:31:20.271Z,37.28
2023-03-15T12:33:52.762Z,38.03
2023-03-15T12:36:53.497Z,38.03
2023-03-15T12:39:40.951Z,38.65
2023-03-15T12:42:33.720Z,39.22
2023-03-15T12:45:20.347Z,40.02
2023-03-15T12:47:50.284Z,40.53
2023-03-15T12:50:36.375Z,41.20
2023-03-15T12:53:27.804Z,40.97
2023-03-15T12:56:06.116Z,41.54
2023-03-15T12:58:37.550Z,42.04
2023-03-15T13:01:06.369Z,41.92
2023-03-15T13:03:36.984Z,42.21
2023-03-15T13:06:22.455Z,42.42
2023-03-15T13:09:02.730Z,41.83
2023-03-15T13:11:53.336Z,41.91
2023-03-15T13:14:43.157Z,42.20
2023-03-15T13:17:35.338Z,42.16
2023-03-15T13:20:13.737Z,42.72
2023-03-15T13:23:10.829Z,43.10
2023-03-15T13:25:50.907Z,44.00
2023-03-15T13:28:27.777Z,43.88
2023-03-15T13:30:55.691Z,44.07
2023-03-15T13:33:32.854Z,44.28
2023-03-15T13:36:04.680Z,44.43
2023-03-15T13:38:35.416Z,44.60
2023-03-15T13:41:05.909Z,45.11
2023-03-15T13:43:35.439Z,45.07
2023-03-15T13:46:03.220Z,44.86
2023-03-15T13:48:32.568Z,44.86
2023-03-15T13:51:22.890Z,44.29
2023-03-15T13:53:52.870Z,44.17
2023-03-15T13:56:32.666Z,44.43
2023-03-15T13:59:05.412Z,44.52
2023-03-15T14:01:35.600Z,44.77
2023-03-15T14:04:06.211Z,45.00
2023-03-15T14:06:34.316Z,45.08
2023-03-15T14:09:07.704Z,44.92
2023-03-15T14:11:40.820Z,45.09
2023-03-15T14:14:25.149Z,45.22
2023-03-15T14:17:04.986Z,45.56
2023-03-15T14:19:35.267Z,45.43
2023-03-15T14:22:05.042Z,45.88
2023-03-15T14:24:38.436Z,46.52
2023-03-15T14:27:14.659Z,45.54
2023-03-15T14:29:54.381Z,45.51
2023-03-15T14:32:28.653Z,45.36
2023-03-15T14:35:02.532Z,45.12
2023-03-15T14:37:41.699Z,46.30
2023-03-15T14:40:15.749Z,46.15
2023-03-15T14:42:46.114Z,46.37
2023-03-15T14:45:13.707Z,47.04
2023-03-15T14:47:57.924Z,47.49
2023-03-15T14:50:28.701Z,46.83
2023-03-15T14:52:57.071Z,46.97
2023-03-15T14:55:27.755Z,46.51
2023-03-15T14:57:55.945Z,46.40
2023-03-15T15:00:25.579Z,48.06
2023-03-15T15:02:54.824Z,47.52
2023-03-15T15:05:35.258Z,48.70
2023-03-15T15:08:14.935Z,49.12
2023-03-15T15:10:44.170Z,48.09
2023-03-15T15:13:21.258Z,48.17
2023-03-15T15:15:55.787Z,49.72
2023-03-15T15:18:31.698Z,49.14
2023-03-15T15:21:27.458Z,49.73
2023-03-15T15:23:58.856Z,51.12
2023-03-15T15:26:28.957Z,51.74
2023-03-15T15:28:57.882Z,51.99
2023-03-15T15:31:26.213Z,52.22
2023-03-15T15:33:54.898Z,50.64
2023-03-15T15:36:25.321Z,51.66
2023-03-15T15:38:52.551Z,51.29
2023-03-15T15:41:25.183Z,49.74
2023-03-15T15:43:55.455Z,48.97
2023-03-15T15:46:23.902Z,48.61
2023-03-15T15:48:52.298Z,48.54
2023-03-15T15:51:31.260Z,48.79
2023-03-15T15:53:59.826Z,48.35
2023-03-15T15:56:31.061Z,48.83
2023-03-15T15:58:58.945Z,48.52
2023-03-15T16:01:26.445Z,48.94
2023-03-15T16:03:53.745Z,49.02
2023-03-15T16:06:21.645Z,49.25
2023-03-15T16:08:50.174Z,50.15
2023-03-15T16:11:24.484Z,50.29
2023-03-15T16:13:54.027Z,50.31
2023-03-15T16:16:21.572Z,50.40
2023-03-15T16:18:48.938Z,51.51
2023-03-15T16:21:23.611Z,52.55
2023-03-15T16:23:55.896Z,54.00
2023-03-15T16:26:23.283Z,55.78
2023-03-15T16:28:52.035Z,57.66
2023-03-15T16:31:22.468Z,59.54
2023-03-15T16:33:52.671Z,61.75
2023-03-15T16:36:21.384Z,65.13
2023-03-15T16:38:48.882Z,66.56
2023-03-15T16:41:16.440Z,67.50
2023-03-15T16:43:44.587Z,70.78
2023-03-15T16:46:14.060Z,71.08
2023-03-15T16:48:43.620Z,73.83
2023-03-15T16:51:12.420Z,73.40
2023-03-15T16:53:39.826Z,73.79
2023-03-15T16:56:10.248Z,78.20
2023-03-15T16:58:42.550Z,79.24
2023-03-15T17:01:11.061Z,78.17
2023-03-15T17:03:38.584Z,77.38
2023-03-15T17:06:06.366Z,78.72
2023-03-15T17:08:34.262Z,77.61
2023-03-15T17:11:01.673Z,78.49
2023-03-15T17:13:32.813Z,79.28
2023-03-15T17:16:01.234Z,79.54
2023-03-15T17:18:30.051Z,79.27
2023-03-15T17:20:58.528Z,79.46
2023-03-15T17:23:25.873Z,80.72
2023-03-15T17:25:53.318Z,84.73
2023-03-15T17:28:21.397Z,85.66
2023-03-15T17:30:51.601Z,83.79
2023-03-15T17:33:25.961Z,87.32
2023-03-15T17:35:58.347Z,87.03
2023-03-15T17:38:30.765Z,88.47
2023-03-15T17:40:58.384Z,91.30
2023-03-15T17:43:26.754Z,92.46
2023-03-15T17:45:54.773Z,92.61
2023-03-15T17:48:22.696Z,94.75
2023-03-15T17:50:52.834Z,96.55
2023-03-15T17:53:21.201Z,97.38
2023-03-15T17:55:49.165Z,100.00
2023-03-15T17:58:19.822Z,100.00
2023-03-15T18:00:48.678Z,100.00
2023-03-15T18:03:16.258Z,100.00
2023-03-15T18:05:43.745Z,100.00
2023-03-15T18:08:13.125Z,100.00
2023-03-15T18:10:42.351Z,100.00
2023-03-15T18:13:18.779Z,100.00
2023-03-15T18:15:50.414Z,100.00
2023-03-15T18:18:17.820Z,100.00
2023-03-15T18:20:45.943Z,100.00
2023-03-15T18:23:14.863Z,100.00
2023-03-15T18:25:42.424Z,100.00
2023-03-15T18:28:11.878Z,100.00
2023-03-15T18:30:40.926Z,100.00
2023-03-15T18:33:10.315Z,100.00
2023-03-15T18:35:37.833Z,100.00
2023-03-15T18:38:05.469Z,100.00
2023-03-15T18:40:33.702Z,100.00
2023-03-15T18:43:01.498Z,100.00
2023-03-15T18:45:31.263Z,100.00
2023-03-15T18:47:59.972Z,100.00
2023-03-15T18:50:28.581Z,100.00
2023-03-15T18:52:56.320Z,100.00
2023-03-15T18:55:23.718Z,100.00
2023-03-15T18:57:52.114Z,100.00
2023-03-15T19:00:26.752Z,100.00
2023-03-15T19:02:56.394Z,100.00
2023-03-15T19:05:24.362Z,100.00
2023-03-15T19:07:51.851Z,100.00
2023-03-15T19:10:19.928Z,100.00
2023-03-15T19:12:48.365Z,100.00
2023-03-15T19:15:17.794Z,100.00
2023-03-15T19:17:46.951Z,100.00
2023-03-15T19:20:24.606Z,100.00
2023-03-15T19:22:53.972Z,100.00
2023-03-15T19:25:21.504Z,100.00
2023-03-15T19:27:54.110Z,100.00
2023-03-15T19:30:22.549Z,100.00
2023-03-15T19:32:50.223Z,100.00
2023-03-15T19:35:19.245Z,100.00
2023-03-15T19:37:47.197Z,100.00
2023-03-15T19:40:19.446Z,100.00
2023-03-15T19:42:48.726Z,100.00
2023-03-15T19:45:16.410Z,100.00
2023-03-15T19:47:44.299Z,100.00
2023-03-15T19:50:12.410Z,100.00
2023-03-15T19:52:46.155Z,100.00
2023-03-15T19:55:18.570Z,100.00
2023-03-15T19:57:45.937Z,100.00
2023-03-15T20:00:16.040Z,100.00
2023-03-15T20:02:43.827Z,100.00
2023-03-15T20:05:18.042Z,100.00
2023-03-15T20:07:47.324Z,100.00
2023-03-15T20:10:14.624Z,100.00
2023-03-15T20:12:43.011Z,100.00
2023-03-15T20:15:11.439Z,100.00
2023-03-15T20:17:39.471Z,100.00
2023-03-15T20:20:11.412Z,100.00
2023-03-15T20:22:41.248Z,100.00
2023-03-15T20:25:17.845Z,100.00
2023-03-15T20:27:45.772Z,100.00
2023-03-15T20:30:14.628Z,100.00
2023-03-15T20:32:43.585Z,100.00
2023-03-15T20:35:12.071Z,100.00
2023-03-15T20:37:40.766Z,100.00
2023-03-15T20:40:14.430Z,100.00
2023-03-15T20:42:48.651Z,100.00
2023-03-15T20:45:16.556Z,100.00
2023-03-15T20:47:43.910Z,100.00
2023-03-15T20:50:12.680Z,100.00
2023-03-15T20:52:40.963Z,100.00
2023-03-15T20:55:10.040Z,100.00
2023-03-15T20:57:41.310Z,100.00
2023-03-15T21:00:13.092Z,100.00
2023-03-15T21:02:40.500Z,100.00
2023-03-15T21:05:09.008Z,100.00
2023-03-15T21:07:39.392Z,100.00
2023-03-15T21:10:06.999Z,100.00
2023-03-15T21:12:34.553Z,100.00
2023-03-15T21:15:06.238Z,100.00
2023-03-15T21:17:33.760Z,100.00
2023-03-15T21:20:01.234Z,100.00
2023-03-15T21:22:28.713Z,100.00
2023-03-15T21:24:56.627Z,100.00
2023-03-15T21:27:26.546Z,100.00
2023-03-15T21:29:56.869Z,100.00
2023-03-15T21:32:24.533Z,100.00
2023-03-15T21:34:51.797Z,100.00
2023-03-15T21:37:19.427Z,100.00
2023-03-15T21:39:46.722Z,100.00
2023-03-15T21:42:14.269Z,100.00
2023-03-15T21:44:41.768Z,100.00
2023-03-15T21:47:11.293Z,100.00
2023-03-15T21:49:40.097Z,100.00
2023-03-15T21:52:07.424Z,100.00
2023-03-15T21:54:36.274Z,100.00
2023-03-15T21:57:04.837Z,100.00
2023-03-15T21:59:39.770Z,100.00
2023-03-15T22:02:08.018Z,100.00
2023-03-15T22:04:35.343Z,100.00
2023-03-15T22:07:04.905Z,100.00
2023-03-15T22:09:32.314Z,100.00
2023-03-15T22:12:07.239Z,100.00
2023-03-15T22:14:37.448Z,100.00
2023-03-15T22:17:05.163Z,100.00
2023-03-15T22:19:38.153Z,100.00
2023-03-15T22:22:05.628Z,100.00
2023-03-15T22:24:34.095Z,100.00
2023-03-15T22:27:04.064Z,100.00
2023-03-15T22:29:31.559Z,100.00
2023-03-15T22:31:58.838Z,100.00
2023-03-15T22:34:27.462Z,100.00
2023-03-15T22:36:54.759Z,100.00
2023-03-15T22:39:23.952Z,100.00
2023-03-15T22:41:51.733Z,100.00
2023-03-15T22:44:20.640Z,100.00
2023-03-15T22:46:49.418Z,100.00
2023-03-15T22:49:16.869Z,100.00
2023-03-15T22:51:44.341Z,100.00
2023-03-15T22:54:11.696Z,100.00
2023-03-15T22:56:46.823Z,100.00
2023-03-15T22:59:14.115Z,100.00
2023-03-15T23:01:41.387Z,100.00
2023-03-15T23:04:08.789Z,100.00
2023-03-15T23:06:36.122Z,100.00
2023-03-15T23:09:06.264Z,100.00
2023-03-15T23:11:34.330Z,100.00
2023-03-15T23:14:01.612Z,100.00
2023-03-15T23:16:34.221Z,100.00
2023-03-15T23:19:03.097Z,100.00
2023-03-15T23:21:30.406Z,100.00
2023-03-15T23:23:58.732Z,100.00
2023-03-15T23:26:26.487Z,100.00
2023-03-15T23:28:54.736Z,100.00
2023-03-15T23:31:23.195Z,100.00
2023-03-15T23:33:50.461Z,100.00
2023-03-15T23:36:18.132Z,100.00
2023-03-15T23:38:45.392Z,100.00
2023-03-15T23:41:15.290Z,100.00
2023-03-15T23:43:42.965Z,100.00
2023-03-15T23:46:10.304Z,100.00
2023-03-15T23:48:38.327Z,100.00
2023-03-15T23:51:05.842Z,100.00
2023-03-15T23:53:35.356Z,100.00
2023-03-15T23:56:02.868Z,100.00
2023-03-15T23:58:30.675Z,100.00
